Time;durP1;ratioP1;P1;durP2;ratioP2;P2;SDS_P1;SDS_P2;PMS_P1;PMS_P2;Temp;Humidity;BMP_temperature;BMP_pressure;BME280_temperature;BME280_humidity;BME280_pressure;Samples;Min_cycle;Max_cycle;Signal;HPM_P1;HPM_P2
2021/01/03 00:00:22;;;;;;;54.20;24.55;;;7.60;77.10;;;;;;5003183;28;20387;-72
2021/01/03 00:02:48;;;;;;;58.40;22.98;;;7.70;77.00;;;;;;5003891;28;20052;-73
2021/01/03 00:05:16;;;;;;;55.53;23.52;;;7.70;77.00;;;;;;5008293;28;20026;-72
2021/01/03 00:07:42;;;;;;;57.13;25.60;;;7.70;76.80;;;;;;5011007;28;20033;-72
2021/01/03 00:10:09;;;;;;;57.05;24.35;;;7.70;76.90;;;;;;5008758;28;20498;-71
2021/01/03 00:12:35;;;;;;;61.47;25.60;;;7.60;76.90;;;;;;5009385;28;20392;-72
2021/01/03 00:15:01;;;;;;;43.92;20.95;;;7.60;77.00;;;;;;5010697;28;20074;-72
2021/01/03 00:17:26;;;;;;;44.08;19.60;;;7.60;77.10;;;;;;4989281;28;20771;-72
2021/01/03 00:19:52;;;;;;;52.03;20.80;;;7.60;77.10;;;;;;4997854;28;20529;-72
2021/01/03 00:22:17;;;;;;;48.67;21.40;;;7.50;77.00;;;;;;5009453;28;20416;-72
2021/01/03 00:24:43;;;;;;;54.40;23.38;;;7.60;77.00;;;;;;4993709;28;20029;-72
2021/01/03 00:27:09;;;;;;;46.95;22.08;;;7.60;76.90;;;;;;5010103;28;20468;-72
2021/01/03 00:29:35;;;;;;;46.83;21.27;;;7.60;76.90;;;;;;5004651;28;20210;-72
2021/01/03 00:32:01;;;;;;;52.70;22.63;;;7.60;76.80;;;;;;5010170;28;20403;-72
2021/01/03 00:34:27;;;;;;;48.72;22.15;;;7.70;76.70;;;;;;5010225;28;20049;-73
2021/01/03 00:36:53;;;;;;;50.88;23.85;;;7.70;76.60;;;;;;5011915;28;20348;-72
2021/01/03 00:39:18;;;;;;;57.17;24.67;;;7.70;76.40;;;;;;4997273;28;20038;-72
2021/01/03 00:41:51;;;;;;;55.30;22.48;;;7.60;76.60;;;;;;5008040;28;20041;-71
2021/01/03 00:44:17;;;;;;;58.37;24.63;;;7.60;76.80;;;;;;5011550;28;20180;-73
2021/01/03 00:46:44;;;;;;;49.88;22.70;;;7.60;76.80;;;;;;5010706;28;20281;-73
2021/01/03 00:49:10;;;;;;;47.15;22.77;;;7.60;76.70;;;;;;5007566;28;20054;-73
2021/01/03 00:51:36;;;;;;;57.95;22.65;;;7.70;76.60;;;;;;5007995;28;20386;-72
2021/01/03 00:54:01;;;;;;;53.13;24.08;;;7.60;76.50;;;;;;5008661;28;20041;-72
2021/01/03 00:56:27;;;;;;;50.53;22.38;;;7.60;76.50;;;;;;5008112;28;20378;-72
2021/01/03 00:58:53;;;;;;;57.90;24.75;;;7.60;76.50;;;;;;5010394;28;20375;-72
2021/01/03 01:01:20;;;;;;;54.45;24.33;;;7.50;76.70;;;;;;5013370;28;20037;-72
2021/01/03 01:03:46;;;;;;;45.17;20.23;;;7.60;76.70;;;;;;5007790;28;20113;-72
2021/01/03 01:06:11;;;;;;;51.38;20.63;;;7.60;76.70;;;;;;5008478;28;20396;-72
2021/01/03 01:08:37;;;;;;;43.05;19.13;;;7.60;76.50;;;;;;5009215;28;20100;-72
2021/01/03 01:11:05;;;;;;;54.60;22.92;;;7.60;76.30;;;;;;5009848;28;20114;-72
2021/01/03 01:13:31;;;;;;;46.58;20.08;;;7.60;76.30;;;;;;5005611;28;20049;-72
2021/01/03 01:15:57;;;;;;;53.58;23.08;;;7.60;76.40;;;;;;4992226;28;20044;-72
2021/01/03 01:18:22;;;;;;;45.28;22.33;;;7.60;76.30;;;;;;4990375;28;20058;-71
2021/01/03 01:20:48;;;;;;;52.65;22.77;;;7.60;76.30;;;;;;4995533;28;20030;-72
2021/01/03 01:23:14;;;;;;;46.67;23.02;;;7.60;76.30;;;;;;5009929;28;20046;-72
2021/01/03 01:25:39;;;;;;;49.10;20.83;;;7.60;76.20;;;;;;5004919;28;20042;-72
2021/01/03 01:28:05;;;;;;;41.45;20.30;;;7.60;76.20;;;;;;5005037;28;20040;-72
2021/01/03 01:30:33;;;;;;;40.53;18.80;;;7.60;76.10;;;;;;5010980;28;20129;-72
2021/01/03 01:32:59;;;;;;;43.83;20.13;;;7.60;76.00;;;;;;5007319;28;20054;-72
2021/01/03 01:35:28;;;;;;;44.67;21.50;;;7.70;75.90;;;;;;5009065;28;20033;-72
2021/01/03 01:37:54;;;;;;;47.28;20.60;;;7.60;75.90;;;;;;5008774;28;20104;-72
2021/01/03 01:40:24;;;;;;;44.15;20.90;;;7.60;75.90;;;;;;5006412;28;20022;-72
2021/01/03 01:42:52;;;;;;;49.72;21.33;;;7.60;75.90;;;;;;5008700;28;20030;-72
2021/01/03 01:45:20;;;;;;;45.40;23.63;;;7.60;76.00;;;;;;5010341;28;20037;-71
2021/01/03 01:47:49;;;;;;;43.80;21.35;;;7.60;76.00;;;;;;5010326;28;20030;-72
2021/01/03 01:50:20;;;;;;;42.08;21.60;;;7.60;76.00;;;;;;5009858;28;20037;-71
2021/01/03 01:52:52;;;;;;;40.38;19.55;;;7.60;75.80;;;;;;5002565;28;20037;-71
2021/01/03 01:55:23;;;;;;;38.15;17.30;;;7.70;75.50;;;;;;5007584;28;20026;-72
2021/01/03 01:58:10;;;;;;;37.63;18.17;;;7.70;75.50;;;;;;5007118;28;20033;-72
2021/01/03 02:00:38;;;;;;;39.47;17.67;;;7.70;75.40;;;;;;5007711;28;20034;-71
2021/01/03 02:03:19;;;;;;;40.95;18.67;;;7.80;75.50;;;;;;5008108;28;20037;-72
2021/01/03 02:06:05;;;;;;;40.83;17.85;;;7.80;75.30;;;;;;4994524;28;20105;-72
2021/01/03 02:08:37;;;;;;;48.53;19.35;;;7.70;75.20;;;;;;5008566;28;20837;-71
2021/01/03 02:11:06;;;;;;;45.03;21.45;;;7.80;75.40;;;;;;5010598;28;20030;-72
2021/01/03 02:13:36;;;;;;;40.45;20.88;;;7.70;75.30;;;;;;5001998;28;20492;-72
2021/01/03 02:16:14;;;;;;;40.10;19.60;;;7.70;75.20;;;;;;5009884;28;20081;-71
2021/01/03 02:18:41;;;;;;;37.95;17.35;;;7.80;75.20;;;;;;5001352;28;20138;-72
2021/01/03 02:21:22;;;;;;;42.72;18.73;;;7.80;75.20;;;;;;5010625;28;20045;-71
2021/01/03 02:23:59;;;;;;;40.58;19.10;;;7.80;75.20;;;;;;5007040;28;20045;-72
2021/01/03 02:26:30;;;;;;;36.53;17.60;;;7.80;75.20;;;;;;5009883;28;20408;-72
2021/01/03 02:28:56;;;;;;;40.15;18.30;;;7.70;75.10;;;;;;5008643;28;20076;-72
2021/01/03 02:31:31;;;;;;;41.15;19.48;;;7.80;75.20;;;;;;5009621;28;20066;-71
2021/01/03 02:33:58;;;;;;;39.72;20.73;;;7.70;75.10;;;;;;5007290;28;20050;-72
2021/01/03 02:36:40;;;;;;;42.13;19.88;;;7.70;75.20;;;;;;5008295;28;20041;-72
2021/01/03 02:39:26;;;;;;;46.50;23.65;;;7.70;75.20;;;;;;5008231;28;20084;-71
2021/01/03 02:41:54;;;;;;;45.67;20.65;;;7.60;75.40;;;;;;5005545;28;20030;-72
2021/01/03 02:44:20;;;;;;;42.75;20.05;;;7.50;75.60;;;;;;5007734;28;20037;-72
2021/01/03 02:46:46;;;;;;;42.75;22.38;;;7.50;75.80;;;;;;5007919;28;20050;-72
2021/01/03 02:49:13;;;;;;;50.70;21.65;;;7.50;75.90;;;;;;5006793;28;20061;-71
2021/01/03 02:51:40;;;;;;;44.97;22.02;;;7.40;76.00;;;;;;5005757;28;20138;-72
2021/01/03 02:54:07;;;;;;;48.88;20.95;;;7.40;76.30;;;;;;5007315;28;20032;-72
2021/01/03 02:56:33;;;;;;;46.72;19.67;;;7.40;76.30;;;;;;4997867;28;20427;-71
2021/01/03 02:58:59;;;;;;;41.27;19.97;;;7.50;76.20;;;;;;4982897;28;20129;-72
2021/01/03 03:01:24;;;;;;;42.95;19.80;;;7.50;76.10;;;;;;5002786;28;20034;-72
2021/01/03 03:03:50;;;;;;;42.28;20.00;;;7.50;76.10;;;;;;5008732;28;20030;-71
2021/01/03 03:06:16;;;;;;;45.92;19.95;;;7.50;76.10;;;;;;5001557;28;20058;-72
2021/01/03 03:08:42;;;;;;;57.10;22.63;;;7.60;76.10;;;;;;5000751;28;20144;-72
2021/01/03 03:11:08;;;;;;;48.30;22.23;;;7.60;76.10;;;;;;5000296;28;20030;-72
2021/01/03 03:13:34;;;;;;;49.63;22.65;;;7.60;76.00;;;;;;5009926;28;20040;-71
2021/01/03 03:15:59;;;;;;;45.08;21.35;;;7.60;76.00;;;;;;5012696;28;20062;-72
2021/01/03 03:18:25;;;;;;;46.42;21.27;;;7.70;75.90;;;;;;5009166;28;20034;-72
2021/01/03 03:20:51;;;;;;;47.50;22.13;;;7.80;75.70;;;;;;5011906;28;20025;-72
2021/01/03 03:23:16;;;;;;;51.40;21.75;;;7.80;75.60;;;;;;5010138;28;20030;-71
2021/01/03 03:25:42;;;;;;;54.78;20.27;;;7.80;75.50;;;;;;5006272;28;20498;-72
2021/01/03 03:28:08;;;;;;;53.83;23.80;;;7.80;75.50;;;;;;5012074;28;20038;-72
2021/01/03 03:30:33;;;;;;;43.53;23.70;;;7.80;75.50;;;;;;5011361;28;20372;-72
2021/01/03 03:32:59;;;;;;;47.03;21.60;;;7.80;75.40;;;;;;4992338;28;20085;-72
2021/01/03 03:35:30;;;;;;;52.25;21.63;;;7.90;75.30;;;;;;4991697;28;20038;-72
2021/01/03 03:37:57;;;;;;;47.20;22.98;;;8.00;75.20;;;;;;5011376;28;20037;-72
2021/01/03 03:40:23;;;;;;;49.30;22.73;;;8.00;75.10;;;;;;5007394;28;20037;-72
2021/01/03 03:42:49;;;;;;;52.80;22.33;;;8.00;75.00;;;;;;5012415;28;20026;-72
2021/01/03 03:45:16;;;;;;;56.25;24.80;;;8.00;74.90;;;;;;4994195;28;20500;-72
2021/01/03 03:47:41;;;;;;;47.83;21.90;;;8.10;74.90;;;;;;5012584;28;20037;-72
2021/01/03 03:50:14;;;;;;;51.25;23.17;;;8.10;74.80;;;;;;5009117;28;20042;-72
2021/01/03 03:52:40;;;;;;;51.43;23.50;;;8.00;74.80;;;;;;5011234;28;20033;-71
2021/01/03 03:55:06;;;;;;;57.50;24.63;;;8.00;74.80;;;;;;5010968;28;20650;-72
2021/01/03 03:57:32;;;;;;;55.20;26.33;;;8.00;74.80;;;;;;4994861;28;20785;-71
2021/01/03 03:59:58;;;;;;;47.20;22.20;;;8.00;74.80;;;;;;5010438;28;20045;-72
2021/01/03 04:02:23;;;;;;;51.13;24.40;;;7.90;74.90;;;;;;5011291;28;20463;-72
2021/01/03 04:04:49;;;;;;;53.03;24.85;;;7.90;75.00;;;;;;4991980;28;20034;-71
2021/01/03 04:07:14;;;;;;;56.70;24.10;;;7.90;75.00;;;;;;5010790;28;20029;-72
2021/01/03 04:09:40;;;;;;;52.00;22.85;;;7.90;75.00;;;;;;4988233;28;20070;-72
2021/01/03 04:12:06;;;;;;;54.53;24.92;;;7.90;74.90;;;;;;4994495;28;20034;-71
2021/01/03 04:14:32;;;;;;;60.22;25.30;;;7.90;75.00;;;;;;5011944;28;20040;-71
2021/01/03 04:17:00;;;;;;;54.13;23.77;;;7.90;75.00;;;;;;5011980;28;20421;-72
2021/01/03 04:19:27;;;;;;;52.20;22.27;;;7.90;74.90;;;;;;5009169;28;20033;-72
2021/01/03 04:21:57;;;;;;;47.92;22.80;;;7.90;74.80;;;;;;5015512;28;20115;-72
2021/01/03 04:24:23;;;;;;;45.97;20.73;;;8.00;74.80;;;;;;5010483;28;20037;-72
2021/01/03 04:26:50;;;;;;;53.08;22.65;;;8.00;74.70;;;;;;5009565;28;20133;-72
2021/01/03 04:29:16;;;;;;;46.95;23.48;;;8.00;74.70;;;;;;5006778;28;20041;-71
2021/01/03 04:31:43;;;;;;;55.97;23.33;;;8.00;74.80;;;;;;5008599;28;20034;-71
2021/01/03 04:34:09;;;;;;;59.92;26.35;;;8.00;74.90;;;;;;5009999;28;20065;-72
2021/01/03 04:36:34;;;;;;;54.08;24.85;;;8.00;75.00;;;;;;5009474;28;20036;-72
2021/01/03 04:39:00;;;;;;;56.40;26.05;;;8.00;75.00;;;;;;5010320;28;20037;-71
2021/01/03 04:41:31;;;;;;;61.03;26.58;;;8.00;75.00;;;;;;5009358;28;20114;-72
2021/01/03 04:44:01;;;;;;;62.35;28.58;;;7.90;74.90;;;;;;5010296;28;20053;-72
2021/01/03 04:46:32;;;;;;;58.13;25.40;;;7.90;75.00;;;;;;5009307;28;20032;-72
2021/01/03 04:48:59;;;;;;;56.13;24.40;;;7.90;75.00;;;;;;5010387;28;20064;-71
2021/01/03 04:52:00;;;;;;;53.60;22.77;;;7.90;75.00;;;;;;5008512;28;20115;-72
2021/01/03 04:54:25;;;;;;;59.60;26.88;;;8.00;75.00;;;;;;5001380;28;20093;-72
2021/01/03 04:56:55;;;;;;;54.95;24.42;;;8.00;74.90;;;;;;5010590;28;20042;-72
2021/01/03 04:59:46;;;;;;;54.60;24.50;;;8.00;75.00;;;;;;5010200;28;20041;-72
2021/01/03 05:02:48;;;;;;;55.92;25.50;;;7.90;74.90;;;;;;5022178;28;20044;-71
2021/01/03 05:05:39;;;;;;;55.15;22.17;;;7.90;75.00;;;;;;5006915;28;20044;-72
2021/01/03 05:08:22;;;;;;;49.85;21.55;;;7.90;75.00;;;;;;5005476;28;20045;-72
2021/01/03 05:10:48;;;;;;;52.60;24.15;;;7.90;75.00;;;;;;5003859;28;20491;-72
2021/01/03 05:13:34;;;;;;;56.85;26.27;;;7.90;75.00;;;;;;5008863;28;20056;-71
2021/01/03 05:16:00;;;;;;;51.80;24.02;;;8.00;74.90;;;;;;5009941;28;20037;-72
2021/01/03 05:18:26;;;;;;;55.55;25.70;;;8.00;74.70;;;;;;5010490;28;20050;-71
2021/01/03 05:20:57;;;;;;;57.70;25.77;;;8.00;74.60;;;;;;5007731;28;20038;-72
2021/01/03 05:23:26;;;;;;;54.13;25.73;;;8.00;74.60;;;;;;5002691;28;20049;-72
2021/01/03 05:25:54;;;;;;;49.63;24.20;;;8.00;74.50;;;;;;5007566;28;20034;-72
2021/01/03 05:28:29;;;;;;;56.53;27.70;;;8.00;74.50;;;;;;5009905;28;20510;-71
2021/01/03 05:31:16;;;;;;;51.38;24.52;;;8.00;74.50;;;;;;5003572;28;20509;-72
2021/01/03 05:34:00;;;;;;;57.05;26.35;;;8.10;74.50;;;;;;5005142;28;20061;-71
2021/01/03 05:36:39;;;;;;;59.28;26.13;;;8.00;74.50;;;;;;4994897;28;20088;-71
2021/01/03 05:39:25;;;;;;;49.15;22.95;;;8.10;74.50;;;;;;5001228;28;20021;-72
2021/01/03 05:42:03;;;;;;;51.63;25.50;;;8.10;74.40;;;;;;4990680;28;20050;-71
2021/01/03 05:44:33;;;;;;;49.38;25.05;;;8.10;74.40;;;;;;5005545;28;20033;-71
2021/01/03 05:47:17;;;;;;;48.75;25.83;;;8.10;74.50;;;;;;5000017;28;20030;-72
2021/01/03 05:49:44;;;;;;;51.83;25.35;;;8.10;74.40;;;;;;5005690;28;20038;-71
2021/01/03 05:52:23;;;;;;;48.38;23.95;;;8.10;74.30;;;;;;5010474;28;20030;-71
2021/01/03 05:54:51;;;;;;;57.63;27.58;;;8.20;74.20;;;;;;5002060;28;20041;-72
2021/01/03 05:57:29;;;;;;;50.50;24.52;;;8.20;74.10;;;;;;4997241;28;20045;-72
2021/01/03 05:59:55;;;;;;;52.70;26.02;;;8.20;74.20;;;;;;5009043;28;20047;-72
2021/01/03 06:02:28;;;;;;;52.17;24.13;;;8.20;74.20;;;;;;4994570;28;20034;-71
2021/01/03 06:05:08;;;;;;;50.28;24.63;;;8.20;74.10;;;;;;4995239;28;20034;-72
2021/01/03 06:07:35;;;;;;;48.30;23.10;;;8.10;74.20;;;;;;5011053;28;20037;-72
2021/01/03 06:10:01;;;;;;;55.88;26.45;;;8.10;74.30;;;;;;5005008;28;20038;-72
2021/01/03 06:12:29;;;;;;;51.85;25.00;;;8.10;74.30;;;;;;4996452;28;20495;-72
2021/01/03 06:15:01;;;;;;;51.78;25.70;;;8.10;74.30;;;;;;4991548;28;20508;-72
2021/01/03 06:17:34;;;;;;;53.80;23.52;;;8.10;74.30;;;;;;4996980;28;20033;-71
2021/01/03 06:20:23;;;;;;;53.65;26.15;;;8.00;74.30;;;;;;5000527;28;20042;-72
2021/01/03 06:22:58;;;;;;;49.60;23.88;;;8.00;74.30;;;;;;5007096;28;20152;-72
2021/01/03 06:25:43;;;;;;;52.75;25.00;;;8.00;74.30;;;;;;5004791;28;20022;-73
2021/01/03 06:28:16;;;;;;;49.92;26.15;;;8.10;74.30;;;;;;5009476;28;20030;-72
2021/01/03 06:30:49;;;;;;;53.08;24.13;;;8.00;74.20;;;;;;5005290;28;20030;-72
2021/01/03 06:33:18;;;;;;;;;;;8.00;74.80;;;;;;5006771;28;20046;-72
2021/01/03 06:35:58;;;;;;;51.70;25.60;;;8.00;74.20;;;;;;5002406;28;19913;-72
2021/01/03 06:38:39;;;;;;;48.45;23.20;;;8.00;74.20;;;;;;5001740;28;20022;-72
2021/01/03 06:41:11;;;;;;;43.70;23.08;;;7.90;74.20;;;;;;5001970;28;20098;-72
2021/01/03 06:44:25;;;;;;;53.75;25.60;;;7.90;74.30;;;;;;5002872;28;20029;-72
2021/01/03 06:47:28;;;;;;;46.20;24.73;;;7.90;74.20;;;;;;5010688;28;20446;-72
2021/01/03 06:50:24;;;;;;;50.22;22.02;;;7.90;74.30;;;;;;4995039;28;20125;-73
2021/01/03 06:53:30;;;;;;;44.90;21.40;;;7.90;74.20;;;;;;5010631;28;20479;-71
2021/01/03 06:56:21;;;;;;;47.83;23.77;;;7.90;73.90;;;;;;5012864;28;20302;-72
2021/01/03 06:58:55;;;;;;;45.63;22.13;;;7.80;73.90;;;;;;5010004;28;20124;-72
2021/01/03 07:01:26;;;;;;;44.42;23.58;;;7.80;74.00;;;;;;5007875;28;20029;-71
2021/01/03 07:03:55;;;;;;;45.70;25.40;;;7.80;73.80;;;;;;5007838;28;20425;-71
2021/01/03 07:06:21;;;;;;;43.05;22.00;;;7.70;73.80;;;;;;5006873;28;20395;-71
2021/01/03 07:08:51;;;;;;;37.58;21.30;;;7.70;73.80;;;;;;5002535;28;20042;-71
2021/01/03 07:11:39;;;;;;;40.78;21.42;;;7.80;73.80;;;;;;5011728;28;20030;-71
2021/01/03 07:14:08;;;;;;;46.40;24.13;;;7.80;73.60;;;;;;5012261;28;20363;-72
2021/01/03 07:16:56;;;;;;;43.97;21.98;;;7.80;73.50;;;;;;5005482;28;20042;-71
2021/01/03 07:19:38;;;;;;;46.95;20.90;;;7.80;73.40;;;;;;5005897;28;20365;-72
2021/01/03 07:22:12;;;;;;;42.47;21.95;;;7.90;73.20;;;;;;5013193;28;20114;-72
2021/01/03 07:25:01;;;;;;;45.83;23.90;;;7.80;73.00;;;;;;5012369;28;20037;-72
2021/01/03 07:27:33;;;;;;;38.17;19.80;;;7.80;73.00;;;;;;5006664;28;20108;-71
2021/01/03 07:30:04;;;;;;;37.78;20.13;;;7.80;73.00;;;;;;5007076;28;20395;-72
2021/01/03 07:32:32;;;;;;;43.42;20.88;;;7.80;72.60;;;;;;5003567;28;20088;-71
2021/01/03 07:35:00;;;;;;;43.90;23.23;;;7.70;72.40;;;;;;5011086;28;20064;-72
2021/01/03 07:37:28;;;;;;;41.00;19.70;;;7.60;72.10;;;;;;5012922;28;20041;-71
2021/01/03 07:40:09;;;;;;;32.72;17.13;;;7.60;72.00;;;;;;5006447;28;20114;-71
2021/01/03 07:42:44;;;;;;;34.60;17.90;;;7.60;72.00;;;;;;5004171;28;20091;-71
2021/01/03 07:45:12;;;;;;;36.10;20.02;;;7.60;72.00;;;;;;5008811;28;20034;-72
2021/01/03 07:47:53;;;;;;;39.22;19.63;;;7.70;71.80;;;;;;5012727;28;20088;-72
2021/01/03 07:50:24;;;;;;;37.95;21.10;;;7.70;71.50;;;;;;5005564;28;20030;-71
2021/01/03 07:52:55;;;;;;;38.30;20.60;;;7.60;71.20;;;;;;5008886;28;20034;-71
2021/01/03 07:55:31;;;;;;;37.28;20.88;;;7.60;71.40;;;;;;5011068;28;20037;-71
2021/01/03 07:58:00;;;;;;;32.58;18.63;;;7.60;71.00;;;;;;5009109;28;20034;-72
2021/01/03 08:00:32;;;;;;;32.63;16.48;;;7.60;71.00;;;;;;5009369;28;20124;-71
2021/01/03 08:03:02;;;;;;;33.00;18.75;;;7.70;70.90;;;;;;5005194;28;20030;-71
2021/01/03 08:05:29;;;;;;;32.13;18.27;;;7.70;70.80;;;;;;5003676;28;20072;-72
2021/01/03 08:08:03;;;;;;;34.20;18.00;;;7.70;70.70;;;;;;5012883;28;20121;-71
2021/01/03 08:10:29;;;;;;;;;;;7.60;71.20;;;;;;5002990;28;20050;-71
2021/01/03 08:13:03;;;;;;;31.70;17.90;;;7.70;70.40;;;;;;5007627;28;19921;-71
2021/01/03 08:15:32;;;;;;;34.45;20.02;;;7.70;70.60;;;;;;5008571;28;20034;-71
2021/01/03 08:18:13;;;;;;;34.40;19.73;;;7.60;70.50;;;;;;5012201;28;20107;-72
2021/01/03 08:20:38;;;;;;;34.42;18.88;;;7.60;70.80;;;;;;4999328;28;20022;-71
2021/01/03 08:23:29;;;;;;;31.77;18.08;;;7.60;70.90;;;;;;5009426;28;20096;-72
2021/01/03 08:26:15;;;;;;;35.13;17.95;;;7.60;70.80;;;;;;5000054;28;20050;-71
2021/01/03 08:28:50;;;;;;;32.33;17.65;;;7.60;70.90;;;;;;5008563;28;20535;-72
2021/01/03 08:31:16;;;;;;;33.08;16.92;;;7.60;70.80;;;;;;5011293;28;20021;-71
2021/01/03 08:33:42;;;;;;;31.85;17.98;;;7.60;70.80;;;;;;5011149;28;20180;-71
2021/01/03 08:36:29;;;;;;;33.17;16.70;;;7.60;70.90;;;;;;5009910;28;20026;-71
2021/01/03 08:39:08;;;;;;;33.25;19.23;;;7.60;70.70;;;;;;5012291;28;20479;-72
2021/01/03 08:41:59;;;;;;;34.65;17.85;;;7.70;70.60;;;;;;5010187;28;20026;-71
2021/01/03 08:44:30;;;;;;;33.65;18.63;;;7.70;70.20;;;;;;5007218;28;20026;-71
2021/01/03 08:47:08;;;;;;;34.55;16.92;;;7.60;69.90;;;;;;5011774;28;20030;-71
2021/01/03 08:49:33;;;;;;;35.17;18.13;;;7.60;70.00;;;;;;5009436;28;20790;-71
2021/01/03 08:52:16;;;;;;;30.25;16.08;;;7.60;69.90;;;;;;5010651;28;20034;-71
2021/01/03 08:54:43;;;;;;;29.83;16.52;;;7.50;69.60;;;;;;5000656;28;20380;-71
2021/01/03 08:57:09;;;;;;;30.95;15.50;;;7.50;69.60;;;;;;4994116;28;20051;-71
2021/01/03 08:59:35;;;;;;;30.17;17.60;;;7.50;69.90;;;;;;5006350;28;20113;-72
2021/01/03 09:02:01;;;;;;;27.85;16.65;;;7.50;69.60;;;;;;5005025;28;20092;-71
2021/01/03 09:04:28;;;;;;;26.77;15.25;;;7.40;69.70;;;;;;5007947;28;20030;-72
2021/01/03 09:06:56;;;;;;;25.45;14.43;;;7.40;69.60;;;;;;5005264;28;20038;-72
2021/01/03 09:09:26;;;;;;;34.30;17.70;;;7.50;69.40;;;;;;5001649;28;20097;-72
2021/01/03 09:11:58;;;;;;;33.35;16.90;;;7.50;69.10;;;;;;5012420;28;20049;-72
2021/01/03 09:14:54;;;;;;;25.02;13.95;;;7.50;68.90;;;;;;5010860;28;20034;-72
2021/01/03 09:17:28;;;;;;;26.67;13.93;;;7.50;68.80;;;;;;5011106;28;20042;-72
2021/01/03 09:20:27;;;;;;;26.48;13.35;;;7.50;68.70;;;;;;5005303;28;20084;-73
2021/01/03 09:22:55;;;;;;;24.80;13.35;;;7.60;68.80;;;;;;5006958;28;20087;-72
2021/01/03 09:25:34;;;;;;;24.80;14.32;;;7.70;68.80;;;;;;5010144;28;20029;-72
2021/01/03 09:28:27;;;;;;;30.77;16.23;;;7.70;68.60;;;;;;5010674;28;20025;-72
2021/01/03 09:31:19;;;;;;;25.55;13.18;;;7.70;68.50;;;;;;4993444;28;20543;-72
2021/01/03 09:34:07;;;;;;;27.52;13.90;;;7.80;68.20;;;;;;4990126;28;20429;-73
2021/01/03 09:36:46;;;;;;;22.88;13.25;;;7.70;67.80;;;;;;5006956;28;20033;-72
2021/01/03 09:39:43;;;;;;;23.85;12.48;;;7.70;68.00;;;;;;4995773;28;20034;-74
2021/01/03 09:42:41;;;;;;;20.83;12.20;;;7.80;68.00;;;;;;5000206;28;20109;-72
2021/01/03 09:45:22;;;;;;;22.08;11.50;;;7.80;68.00;;;;;;5007591;28;20026;-72
2021/01/03 09:47:49;;;;;;;22.15;13.00;;;7.80;67.70;;;;;;5006538;28;20109;-73
2021/01/03 09:50:28;;;;;;;20.90;11.45;;;7.80;67.50;;;;;;5007681;28;20025;-72
2021/01/03 09:53:12;;;;;;;21.48;11.95;;;7.80;67.30;;;;;;4996628;28;20434;-72
2021/01/03 09:55:52;;;;;;;22.90;11.48;;;7.80;67.00;;;;;;4994556;28;20128;-72
2021/01/03 09:58:17;;;;;;;19.40;10.63;;;7.80;66.90;;;;;;4991981;28;20026;-72
2021/01/03 10:00:57;;;;;;;20.23;11.60;;;7.80;66.90;;;;;;4998565;28;20037;-71
2021/01/03 10:03:38;;;;;;;18.30;10.43;;;7.80;66.50;;;;;;4988416;28;20025;-72
2021/01/03 10:06:21;;;;;;;20.45;11.18;;;7.80;66.50;;;;;;4989491;28;20033;-72
2021/01/03 10:08:49;;;;;;;24.75;12.43;;;7.80;66.50;;;;;;4991002;28;20483;-72
2021/01/03 10:11:29;;;;;;;18.30;11.25;;;7.80;66.40;;;;;;4995693;28;20030;-71
2021/01/03 10:14:00;;;;;;;19.92;11.23;;;7.80;66.30;;;;;;4992908;28;20080;-72
2021/01/03 10:16:28;;;;;;;21.45;11.48;;;7.70;66.10;;;;;;5000456;28;20072;-72
2021/01/03 10:18:54;;;;;;;16.85;10.77;;;7.70;66.30;;;;;;4997090;28;20724;-72
2021/01/03 10:21:29;;;;;;;17.17;10.25;;;7.80;66.50;;;;;;4999366;28;20022;-71
2021/01/03 10:24:12;;;;;;;18.33;9.77;;;7.90;66.40;;;;;;4998645;28;20034;-70
2021/01/03 10:26:39;;;;;;;19.35;10.95;;;7.90;66.00;;;;;;5000668;28;20438;-74
2021/01/03 10:29:05;;;;;;;19.85;10.68;;;7.90;66.10;;;;;;4980356;28;20102;-73
2021/01/03 10:31:49;;;;;;;19.23;9.43;;;8.00;66.10;;;;;;4999896;28;20082;-74
2021/01/03 10:34:17;;;;;;;15.88;9.45;;;7.90;65.80;;;;;;5002499;28;20058;-74
2021/01/03 10:36:43;;;;;;;19.83;9.45;;;8.00;65.80;;;;;;4999469;28;20088;-70
2021/01/03 10:39:10;;;;;;;17.52;10.27;;;8.00;65.60;;;;;;4997132;28;20038;-70
2021/01/03 10:41:37;;;;;;;15.07;8.07;;;8.00;65.70;;;;;;5006384;28;20041;-71
2021/01/03 10:44:05;;;;;;;15.68;9.10;;;8.00;65.60;;;;;;5015161;28;20076;-71
2021/01/03 10:46:31;;;;;;;15.82;9.20;;;8.00;65.50;;;;;;5015081;28;20093;-71
2021/01/03 10:48:56;;;;;;;15.15;8.80;;;8.10;65.50;;;;;;5019984;28;20484;-70
2021/01/03 10:51:30;;;;;;;16.98;8.80;;;8.10;65.30;;;;;;5008285;28;20553;-73
2021/01/03 10:53:56;;;;;;;16.40;10.57;;;8.00;65.80;;;;;;5012132;28;20025;-69
2021/01/03 10:56:22;;;;;;;16.30;8.77;;;8.10;64.90;;;;;;5006610;28;20041;-70
2021/01/03 10:58:47;;;;;;;18.38;10.73;;;8.00;64.80;;;;;;5003086;28;20128;-69
2021/01/03 11:01:13;;;;;;;14.82;8.25;;;8.00;64.90;;;;;;5002618;28;20391;-69
2021/01/03 11:03:40;;;;;;;15.68;9.27;;;8.00;64.80;;;;;;5004694;28;20044;-70
2021/01/03 11:06:06;;;;;;;14.05;7.50;;;8.00;65.00;;;;;;5006403;28;20121;-69
2021/01/03 11:08:32;;;;;;;20.17;9.60;;;8.00;65.00;;;;;;5008845;28;20128;-69
2021/01/03 11:10:57;;;;;;;16.00;9.18;;;8.00;65.10;;;;;;4996850;28;20038;-69
2021/01/03 11:13:23;;;;;;;13.65;8.15;;;8.00;65.00;;;;;;5001604;28;20083;-69
2021/01/03 11:15:49;;;;;;;16.92;8.88;;;8.10;64.90;;;;;;4999796;28;20651;-69
2021/01/03 11:18:14;;;;;;;14.43;8.50;;;8.10;64.70;;;;;;4999323;28;20069;-69
2021/01/03 11:20:40;;;;;;;13.88;7.47;;;8.10;64.70;;;;;;4990719;28;20383;-69
2021/01/03 11:23:06;;;;;;;15.93;8.07;;;8.10;64.60;;;;;;4995579;28;20075;-70
2021/01/03 11:25:31;;;;;;;15.73;8.68;;;8.10;64.50;;;;;;4995010;28;20039;-70
2021/01/03 11:27:57;;;;;;;17.80;8.93;;;8.10;64.50;;;;;;5002396;28;20113;-70
2021/01/03 11:30:23;;;;;;;15.82;8.20;;;8.20;64.50;;;;;;5004837;28;20070;-70
2021/01/03 11:32:48;;;;;;;12.60;7.30;;;8.20;64.40;;;;;;5008591;28;20058;-70
2021/01/03 11:35:14;;;;;;;14.15;7.15;;;8.20;64.30;;;;;;5010608;28;20049;-71
2021/01/03 11:37:40;;;;;;;14.10;7.90;;;8.20;64.20;;;;;;5007234;28;20076;-71
2021/01/03 11:40:06;;;;;;;13.60;7.20;;;8.10;63.80;;;;;;5009323;28;20029;-70
2021/01/03 11:42:35;;;;;;;11.98;6.97;;;8.10;63.90;;;;;;4997815;28;20038;-70
2021/01/03 11:45:02;;;;;;;13.43;7.43;;;8.10;64.00;;;;;;5006687;28;20026;-69
2021/01/03 11:47:30;;;;;;;13.63;8.38;;;8.00;64.00;;;;;;4986266;28;20082;-69
2021/01/03 11:49:55;;;;;;;17.10;8.48;;;8.00;63.80;;;;;;5007601;28;20034;-69
2021/01/03 11:52:24;;;;;;;13.02;7.30;;;7.90;64.20;;;;;;5004356;28;20484;-69
2021/01/03 11:54:50;;;;;;;14.02;7.75;;;7.90;64.40;;;;;;5012181;28;20480;-69
2021/01/03 11:57:15;;;;;;;16.02;8.65;;;7.80;64.50;;;;;;5004667;28;20038;-69
2021/01/03 11:59:42;;;;;;;15.82;8.70;;;7.80;64.70;;;;;;5008333;28;20030;-69
2021/01/03 12:02:10;;;;;;;16.73;8.88;;;7.80;64.60;;;;;;5004094;28;20128;-69
2021/01/03 12:04:37;;;;;;;14.50;7.63;;;8.10;65.00;;;;;;4999000;28;20088;-69
2021/01/03 12:07:06;;;;;;;14.10;7.55;;;7.90;65.10;;;;;;4998096;28;20061;-69
2021/01/03 12:09:32;;;;;;;15.07;8.18;;;7.90;64.90;;;;;;5010267;28;20030;-69
2021/01/03 12:12:00;;;;;;;16.17;8.43;;;7.90;65.00;;;;;;5021369;28;20033;-70
2021/01/03 12:14:27;;;;;;;18.35;8.27;;;7.90;65.00;;;;;;5028325;28;20029;-69
2021/01/03 12:16:58;;;;;;;19.67;10.23;;;8.00;65.10;;;;;;5007247;28;20181;-69
2021/01/03 12:19:25;;;;;;;19.52;9.98;;;7.90;65.10;;;;;;5007734;28;20034;-69
2021/01/03 12:21:51;;;;;;;16.38;8.25;;;7.90;65.30;;;;;;5009485;28;20032;-70
2021/01/03 12:24:17;;;;;;;15.88;9.32;;;8.00;65.40;;;;;;5003657;28;20391;-71
2021/01/03 12:26:44;;;;;;;17.92;9.68;;;8.00;65.50;;;;;;5009896;28;20026;-74
2021/01/03 12:29:11;;;;;;;17.45;8.50;;;8.00;65.50;;;;;;5014602;28;20048;-77
2021/01/03 12:31:40;;;;;;;18.30;10.43;;;8.00;65.50;;;;;;5005806;28;20099;-77
2021/01/03 12:34:07;;;;;;;21.73;12.02;;;7.90;65.70;;;;;;5007681;28;20601;-74
2021/01/03 12:36:33;;;;;;;20.48;11.65;;;7.90;65.90;;;;;;5011753;28;20030;-77
2021/01/03 12:38:59;;;;;;;23.63;11.98;;;7.90;66.20;;;;;;5016233;28;20041;-77
2021/01/03 12:41:26;;;;;;;22.08;13.25;;;7.90;66.20;;;;;;5004224;28;20250;-77
2021/01/03 12:43:51;;;;;;;21.88;11.68;;;7.90;66.40;;;;;;5014676;28;20037;-76
2021/01/03 12:46:43;;;;;;;22.17;11.70;;;7.90;66.50;;;;;;5017259;28;20034;-76
2021/01/03 12:49:10;;;;;;;26.52;14.10;;;8.00;66.40;;;;;;5002426;28;20042;-77
2021/01/03 12:51:36;;;;;;;22.92;12.75;;;8.00;66.40;;;;;;5009028;28;20034;-76
2021/01/03 12:54:02;;;;;;;23.23;12.82;;;8.10;66.30;;;;;;4992417;28;20113;-75
2021/01/03 12:56:29;;;;;;;22.02;12.95;;;8.10;66.20;;;;;;5013905;28;20062;-73
2021/01/03 12:59:00;;;;;;;23.92;12.00;;;8.10;66.10;;;;;;5013751;28;20042;-76